createdAt,value
2018-04-07T00:02:10.510Z,1.3
2018-04-07T00:07:35.357Z,1.2
2018-04-07T00:12:59.601Z,1.2
2018-04-07T00:17:18.626Z,1.4
2018-04-07T00:22:43.077Z,1.4
2018-04-07T00:27:02.162Z,1.2
2018-04-07T18:03:35.011Z,5.5
2018-04-07T18:08:59.722Z,5.4
2018-04-07T18:13:19.777Z,5.4
2018-04-07T18:18:43.294Z,5.5
2018-04-07T18:23:03.791Z,5
2018-04-07T18:28:28.898Z,5.2
2018-04-07T18:33:53.558Z,5.2
2018-04-07T18:38:14.082Z,5.4
2018-04-07T18:43:39.170Z,5.1
2018-04-07T18:47:59.434Z,5.5
2018-04-07T18:53:23.921Z,5.1
2018-04-07T18:58:47.257Z,5
2018-04-07T19:03:10.568Z,4.8
2018-04-07T19:08:34.200Z,5.1
2018-04-07T19:13:58.605Z,5
2018-04-07T19:18:17.766Z,5.3
2018-04-07T19:23:45.290Z,5.3
2018-04-07T19:28:04.351Z,5.4
2018-04-07T19:33:29.897Z,5.5
2018-04-07T19:38:54.421Z,5.4
2018-04-07T19:43:16.665Z,5.6
2018-04-07T19:48:41.381Z,5
2018-04-07T19:52:59.743Z,5.2
2018-04-07T19:58:24.170Z,5
2018-04-07T20:03:52.922Z,5.1
2018-04-07T20:08:13.193Z,5.3
2018-04-07T20:13:37.810Z,5.6
2018-04-07T20:19:01.388Z,4.7
2018-04-07T20:23:20.455Z,5.1
2018-04-07T20:28:43.800Z,5.1
2018-04-07T20:33:03.038Z,4.8
2018-04-07T20:38:26.569Z,5.2
2018-04-07T20:43:50.999Z,5.1
2018-04-07T20:48:11.366Z,4.6
2018-04-07T20:53:35.478Z,4.9
2018-04-07T20:58:58.752Z,5.3
2018-04-07T21:03:17.918Z,5.2
2018-04-07T21:08:45.546Z,4.8
2018-04-07T21:13:04.705Z,4.9
2018-04-07T21:18:32.523Z,4.5
2018-04-07T21:23:56.847Z,4.6
2018-04-07T21:28:16.106Z,4.8
2018-04-07T21:33:40.443Z,6.1
2018-04-07T21:39:03.070Z,5.3
2018-04-07T21:43:22.224Z,5.6
2018-04-07T21:48:51.757Z,5.5
2018-04-07T21:53:10.889Z,5.5
2018-04-07T21:58:34.306Z,5.5
2018-04-07T22:03:58.840Z,5.1
2018-04-07T22:08:21.104Z,5.4
2018-04-07T22:13:45.538Z,5
2018-04-07T22:18:04.791Z,5.2
2018-04-07T22:23:29.351Z,5.1
2018-04-07T22:28:52.920Z,4.8
2018-04-07T22:33:12.188Z,5
2018-04-07T22:38:37.712Z,5.3
2018-04-07T22:44:02.438Z,5.3
2018-04-07T22:48:20.830Z,4.9
2018-04-07T22:53:44.852Z,5.2
2018-04-07T22:58:02.901Z,5.1
2018-04-07T23:03:27.212Z,4.9
2018-04-07T23:08:55.672Z,5.1
2018-04-07T23:13:14.731Z,5.2
2018-04-07T23:18:40.341Z,4.7
2018-04-07T23:24:06.863Z,4.6
2018-04-07T23:28:41.655Z,4.8
2018-04-07T23:33:01.041Z,4.7
2018-04-07T23:38:24.557Z,4.3
2018-04-07T23:43:48.872Z,4.6
2018-04-07T23:48:09.235Z,4.5
2018-04-07T23:53:33.859Z,4.8
2018-04-07T23:58:57.603Z,4.6
